createdAt,value
2018-09-15T00:00:48.014Z,15.45
2018-09-15T00:03:15.791Z,15.41
2018-09-15T00:05:43.667Z,15.35
2018-09-15T00:08:11.599Z,15.38
2018-09-15T00:10:39.444Z,15.26
2018-09-15T00:13:07.368Z,15.32
2018-09-15T00:15:35.225Z,15.36
2018-09-15T00:18:05.294Z,15.30
2018-09-15T00:20:33.063Z,15.43
2018-09-15T00:23:00.936Z,15.39
2018-09-15T00:25:28.779Z,15.41
2018-09-15T00:27:56.530Z,15.34
2018-09-15T00:30:24.387Z,15.26
2018-09-15T00:32:52.165Z,15.29
2018-09-15T00:35:20.277Z,15.32
2018-09-15T00:37:48.171Z,15.27
2018-09-15T00:40:15.944Z,15.26
2018-09-15T00:42:44.068Z,15.21
2018-09-15T00:45:12.096Z,15.07
2018-09-15T00:47:39.901Z,15.07
2018-09-15T00:50:07.831Z,15.03
2018-09-15T00:52:35.669Z,15.07
2018-09-15T00:55:03.656Z,15.09
2018-09-15T00:57:31.419Z,14.97
2018-09-15T00:59:59.335Z,14.90
2018-09-15T01:02:27.275Z,14.91
2018-09-15T01:04:55.124Z,14.81
2018-09-15T01:07:22.963Z,14.70
2018-09-15T01:09:54.320Z,14.60
2018-09-15T01:12:22.236Z,14.53
2018-09-15T01:14:50.043Z,14.53
2018-09-15T01:17:17.927Z,14.54
2018-09-15T01:19:45.972Z,14.59
2018-09-15T01:22:13.824Z,14.50
2018-09-15T01:24:41.675Z,14.53
2018-09-15T01:27:09.549Z,14.41
2018-09-15T01:29:37.272Z,14.42
2018-09-15T01:32:05.166Z,14.40
2018-09-15T01:34:33.063Z,14.45
2018-09-15T01:37:01.217Z,14.28
2018-09-15T01:39:29.049Z,14.30
2018-09-15T01:41:56.857Z,14.30
2018-09-15T01:44:24.655Z,14.12
2018-09-15T01:46:52.479Z,14.12
2018-09-15T01:49:20.275Z,14.01
2018-09-15T01:51:48.119Z,14.08
2018-09-15T01:54:16.504Z,14.01
2018-09-15T01:56:44.271Z,13.94
2018-09-15T01:59:12.071Z,13.89
2018-09-15T02:01:39.880Z,13.84
2018-09-15T02:04:08.123Z,13.82
2018-09-15T02:06:35.988Z,13.83
2018-09-15T02:09:09.667Z,13.78
2018-09-15T02:11:37.509Z,13.90
2018-09-15T02:14:05.381Z,13.79
2018-09-15T02:16:33.204Z,13.78
2018-09-15T02:19:01.064Z,13.69
2018-09-15T02:21:28.915Z,13.74
2018-09-15T02:23:56.754Z,13.67
2018-09-15T02:26:24.575Z,13.70
2018-09-15T02:28:52.439Z,13.80
2018-09-15T02:31:20.274Z,13.65
2018-09-15T02:33:48.069Z,13.70
2018-09-15T02:36:16.291Z,13.70
2018-09-15T02:38:44.293Z,13.58
2018-09-15T02:41:12.368Z,13.53
2018-09-15T02:43:40.217Z,13.52
2018-09-15T02:46:07.992Z,13.42
2018-09-15T02:48:35.755Z,13.38
2018-09-15T02:51:03.661Z,13.39
2018-09-15T02:53:31.471Z,13.13
2018-09-15T02:55:59.321Z,13.28
2018-09-15T02:58:27.212Z,13.17
2018-09-15T03:00:55.012Z,13.08
2018-09-15T03:03:22.819Z,12.92
2018-09-15T03:05:50.655Z,12.77
2018-09-15T03:08:18.476Z,12.67
2018-09-15T03:10:46.302Z,12.68
2018-09-15T03:13:14.140Z,12.74
2018-09-15T03:15:41.943Z,12.68
2018-09-15T03:18:09.784Z,12.61
2018-09-15T03:20:37.652Z,12.62
2018-09-15T03:23:05.656Z,12.67
2018-09-15T03:25:33.427Z,12.52
2018-09-15T03:28:01.255Z,12.45
2018-09-15T03:30:29.072Z,12.39
2018-09-15T03:32:56.891Z,12.56
2018-09-15T03:35:24.772Z,12.46
2018-09-15T03:37:52.539Z,12.43
2018-09-15T03:40:20.360Z,12.38
2018-09-15T03:42:52.515Z,12.41
2018-09-15T03:45:20.379Z,12.33
2018-09-15T03:47:48.210Z,12.27
2018-09-15T03:50:16.041Z,12.34
2018-09-15T03:52:43.881Z,12.17
2018-09-15T03:55:11.679Z,12.16
2018-09-15T03:57:39.484Z,12.08
2018-09-15T04:00:07.449Z,11.97
2018-09-15T04:02:35.297Z,11.97
2018-09-15T04:05:03.232Z,12.04
2018-09-15T04:07:30.996Z,11.92
2018-09-15T04:09:58.895Z,11.95
2018-09-15T04:12:26.675Z,11.86
2018-09-15T04:14:54.499Z,11.80
2018-09-15T04:17:22.373Z,11.75
2018-09-15T04:19:50.217Z,11.63
2018-09-15T04:22:18.003Z,11.68
2018-09-15T04:24:45.816Z,11.60
2018-09-15T04:27:13.701Z,11.62
2018-09-15T04:29:41.483Z,11.53
2018-09-15T04:32:09.307Z,11.49
2018-09-15T04:34:37.172Z,11.54
2018-09-15T04:37:05.051Z,11.42
2018-09-15T04:39:32.895Z,11.38
2018-09-15T04:42:00.744Z,11.47
2018-09-15T04:44:28.583Z,11.47
2018-09-15T04:46:59.960Z,11.29
2018-09-15T04:49:27.815Z,11.14
2018-09-15T04:51:55.687Z,11.11
2018-09-15T04:54:23.540Z,10.99
2018-09-15T04:56:51.352Z,10.94
2018-09-15T04:59:19.183Z,10.92
2018-09-15T05:01:47.049Z,10.92
2018-09-15T05:04:14.941Z,10.94
2018-09-15T05:06:42.803Z,10.82
2018-09-15T05:09:11.788Z,10.75
2018-09-15T05:11:39.657Z,10.82
2018-09-15T05:14:07.451Z,10.82
2018-09-15T05:16:35.322Z,10.99
2018-09-15T05:19:03.175Z,10.87
2018-09-15T05:21:31.031Z,10.75
2018-09-15T05:23:58.924Z,10.78
2018-09-15T05:26:26.695Z,10.78
2018-09-15T05:28:54.629Z,10.74
2018-09-15T05:31:22.505Z,10.79
2018-09-15T05:33:56.938Z,10.83
2018-09-15T05:36:26.231Z,10.92
2018-09-15T05:38:55.013Z,10.90
2018-09-15T05:41:23.037Z,10.91
2018-09-15T05:43:54.119Z,10.92
2018-09-15T05:46:24.705Z,10.95
2018-09-15T05:48:52.578Z,11.01
2018-09-15T05:51:21.209Z,11.11
2018-09-15T05:53:49.087Z,11.24
2018-09-15T05:56:16.944Z,11.24
2018-09-15T05:58:44.807Z,11.32
2018-09-15T06:01:12.669Z,11.31
2018-09-15T06:03:40.531Z,11.34
2018-09-15T06:06:08.457Z,11.43
2018-09-15T06:08:36.280Z,11.49
2018-09-15T06:11:04.809Z,11.64
2018-09-15T06:13:32.966Z,11.55
2018-09-15T06:16:01.580Z,11.67
2018-09-15T06:18:30.198Z,11.82
2018-09-15T06:20:58.002Z,11.94
2018-09-15T06:23:25.836Z,12.14
2018-09-15T06:25:53.729Z,12.28
2018-09-15T06:28:31.705Z,12.52
2018-09-15T06:30:59.755Z,12.73
2018-09-15T06:33:27.560Z,12.87
2018-09-15T06:35:59.513Z,13.06
2018-09-15T06:38:27.428Z,13.16
2018-09-15T06:40:55.292Z,13.20
2018-09-15T06:43:23.136Z,13.41
2018-09-15T06:45:51.119Z,13.49
2018-09-15T06:48:18.872Z,13.62
2018-09-15T06:50:46.779Z,13.58
2018-09-15T06:53:14.573Z,13.66
2018-09-15T06:55:42.458Z,13.74
2018-09-15T06:58:10.249Z,13.70
2018-09-15T07:00:38.105Z,13.74
2018-09-15T07:03:05.911Z,13.79
2018-09-15T07:05:33.755Z,13.82
2018-09-15T07:08:01.597Z,13.83
2018-09-15T07:10:29.455Z,13.87
2018-09-15T07:12:57.383Z,13.94
2018-09-15T07:15:25.196Z,14.04
2018-09-15T07:17:53.063Z,14.07
2018-09-15T07:20:20.892Z,14.08
2018-09-15T07:22:48.659Z,14.11
2018-09-15T07:25:16.566Z,14.28
2018-09-15T07:27:44.329Z,14.26
2018-09-15T07:30:12.100Z,14.39
2018-09-15T07:32:39.947Z,14.48
2018-09-15T07:35:07.723Z,14.59
2018-09-15T07:37:37.455Z,14.71
2018-09-15T07:40:09.538Z,14.83
2018-09-15T07:42:38.555Z,14.91
2018-09-15T07:45:06.411Z,15.03
2018-09-15T07:47:34.288Z,15.15
2018-09-15T07:50:02.124Z,15.21
2018-09-15T07:52:30.533Z,15.30
2018-09-15T07:54:58.371Z,15.39
2018-09-15T07:57:26.696Z,15.54
2018-09-15T08:00:04.628Z,15.69
2018-09-15T08:02:37.517Z,15.64
2018-09-15T08:05:05.474Z,15.75
2018-09-15T08:07:33.474Z,15.96
2018-09-15T08:10:02.026Z,16.04
2018-09-15T08:12:29.889Z,16.31
2018-09-15T08:14:57.732Z,16.76
2018-09-15T08:17:25.807Z,16.88
2018-09-15T08:19:54.107Z,17.05
2018-09-15T08:22:21.947Z,17.10
2018-09-15T08:24:50.874Z,17.25
2018-09-15T08:27:18.805Z,17.03
2018-09-15T08:29:46.614Z,17.35
2018-09-15T08:32:14.435Z,17.28
2018-09-15T08:34:42.240Z,17.44
2018-09-15T08:37:10.080Z,17.36
2018-09-15T08:39:37.854Z,17.37
2018-09-15T08:42:05.816Z,17.25
2018-09-15T08:44:37.860Z,17.41
2018-09-15T08:47:06.375Z,17.73
2018-09-15T08:49:34.187Z,17.83
2018-09-15T08:52:02.027Z,18.27
2018-09-15T08:54:29.855Z,18.61
2018-09-15T08:56:57.682Z,18.55
2018-09-15T08:59:25.495Z,18.49
2018-09-15T09:01:53.390Z,18.38
2018-09-15T09:04:21.244Z,18.48
2018-09-15T09:06:49.496Z,18.49
2018-09-15T09:09:17.375Z,18.38
2018-09-15T09:11:45.180Z,18.30
2018-09-15T09:14:12.913Z,18.23
2018-09-15T09:16:40.787Z,18.53
2018-09-15T09:19:08.685Z,18.34
2018-09-15T09:21:36.574Z,18.59
2018-09-15T09:24:04.399Z,18.76
2018-09-15T09:26:32.468Z,18.83
2018-09-15T09:29:00.165Z,18.85
2018-09-15T09:31:28.104Z,18.92
2018-09-15T09:33:55.974Z,18.91
2018-09-15T09:36:23.807Z,18.91
2018-09-15T09:38:51.656Z,18.90
2018-09-15T09:41:19.440Z,18.90
2018-09-15T09:43:47.188Z,18.94
2018-09-15T09:48:52.316Z,18.94
2018-09-15T09:51:20.096Z,19.08
2018-09-15T09:53:47.906Z,19.13
2018-09-15T09:56:15.792Z,19.22
2018-09-15T09:58:43.744Z,19.24
2018-09-15T10:01:17.322Z,19.21
2018-09-15T10:03:45.048Z,19.41
2018-09-15T10:06:12.867Z,19.54
2018-09-15T10:08:40.735Z,19.62
2018-09-15T10:11:08.620Z,19.75
2018-09-15T10:13:36.487Z,19.84
2018-09-15T10:16:04.385Z,19.89
2018-09-15T10:18:32.223Z,19.96
2018-09-15T10:21:00.070Z,19.97
2018-09-15T10:23:27.872Z,20.02
2018-09-15T10:25:55.739Z,20.12
2018-09-15T10:28:23.655Z,20.43
2018-09-15T10:30:51.516Z,20.87
2018-09-15T10:33:19.316Z,21.35
2018-09-15T10:35:47.148Z,21.56
2018-09-15T10:38:14.991Z,22.32
2018-09-15T10:40:42.711Z,22.42
2018-09-15T10:43:10.630Z,22.90
2018-09-15T10:45:38.411Z,23.56
2018-09-15T10:48:06.523Z,23.67
2018-09-15T10:50:34.565Z,23.63
2018-09-15T10:53:02.442Z,23.39
2018-09-15T10:55:30.449Z,23.46
2018-09-15T10:57:58.259Z,23.93
2018-09-15T11:00:26.225Z,24.44
2018-09-15T11:02:54.002Z,25.68
2018-09-15T11:05:21.797Z,25.59
2018-09-15T11:07:49.584Z,25.95
2018-09-15T11:10:17.342Z,25.86
2018-09-15T11:12:45.287Z,25.74
2018-09-15T11:15:13.215Z,25.54
2018-09-15T11:17:41.092Z,25.30
2018-09-15T11:20:08.939Z,24.95
2018-09-15T11:22:36.839Z,24.77
2018-09-15T11:25:04.671Z,24.72
2018-09-15T11:27:33.016Z,24.72
2018-09-15T11:30:00.907Z,24.75
2018-09-15T11:32:28.735Z,24.50
2018-09-15T11:34:56.955Z,24.57
2018-09-15T11:37:24.896Z,24.59
2018-09-15T11:39:52.703Z,24.77
2018-09-15T11:42:22.596Z,24.56
2018-09-15T11:44:50.524Z,24.36
2018-09-15T11:47:18.381Z,24.20
2018-09-15T11:49:46.537Z,24.27
2018-09-15T11:52:14.620Z,24.36
2018-09-15T11:54:42.724Z,24.55
2018-09-15T11:57:13.884Z,24.51
2018-09-15T11:59:43.491Z,24.51
2018-09-15T12:02:11.639Z,24.55
2018-09-15T12:04:39.508Z,24.64
2018-09-15T12:07:07.303Z,25.05
2018-09-15T12:09:35.115Z,25.15
2018-09-15T12:12:02.970Z,25.36
2018-09-15T12:14:30.820Z,25.25
2018-09-15T12:16:58.639Z,25.17
2018-09-15T12:19:26.459Z,25.09
2018-09-15T12:21:54.262Z,24.98
2018-09-15T12:24:22.056Z,25.01
2018-09-15T12:26:49.884Z,24.87
2018-09-15T12:29:18.092Z,24.81
2018-09-15T12:31:46.083Z,24.74
2018-09-15T12:34:13.915Z,24.55
2018-09-15T12:36:44.136Z,24.48
2018-09-15T12:39:11.939Z,24.61
2018-09-15T12:41:39.849Z,24.57
2018-09-15T12:44:07.683Z,24.69
2018-09-15T12:46:35.503Z,24.83
2018-09-15T12:49:03.308Z,24.87
2018-09-15T12:51:31.153Z,24.57
2018-09-15T12:53:58.972Z,24.62
2018-09-15T12:56:26.779Z,24.76
2018-09-15T12:58:54.552Z,24.84
2018-09-15T13:01:25.096Z,24.91
2018-09-15T13:03:52.975Z,24.94
2018-09-15T13:06:20.770Z,25.05
2018-09-15T13:08:48.592Z,25.23
2018-09-15T13:11:16.371Z,25.16
2018-09-15T13:13:44.203Z,25.35
2018-09-15T13:16:12.055Z,25.41
2018-09-15T13:18:39.855Z,25.33
2018-09-15T13:21:07.707Z,25.24
2018-09-15T13:23:35.643Z,25.45
2018-09-15T13:26:03.476Z,25.43
2018-09-15T13:28:31.262Z,25.37
2018-09-15T13:30:59.124Z,25.41
2018-09-15T13:33:26.944Z,25.45
2018-09-15T13:35:54.787Z,25.50
2018-09-15T13:38:22.663Z,25.42
2018-09-15T13:40:50.503Z,25.25
2018-09-15T13:43:18.358Z,25.14
2018-09-15T13:45:46.190Z,24.99
2018-09-15T13:48:14.024Z,24.85
2018-09-15T13:50:41.895Z,24.50
2018-09-15T13:53:09.760Z,24.66
2018-09-15T13:55:37.512Z,24.67
2018-09-15T13:58:05.664Z,24.41
2018-09-15T14:00:33.513Z,24.51
2018-09-15T14:03:01.407Z,24.13
2018-09-15T14:05:29.212Z,24.13
2018-09-15T14:07:56.951Z,24.21
2018-09-15T14:10:24.771Z,24.19
2018-09-15T14:12:52.525Z,24.23
2018-09-15T14:15:20.378Z,24.23
2018-09-15T14:17:48.283Z,24.18
2018-09-15T14:20:16.127Z,24.15
2018-09-15T14:22:43.903Z,23.93
2018-09-15T14:25:11.714Z,23.87
2018-09-15T14:27:39.607Z,23.88
2018-09-15T14:30:07.427Z,23.84
2018-09-15T14:32:35.293Z,23.88
2018-09-15T14:35:05.780Z,23.89
2018-09-15T14:37:33.560Z,23.88
2018-09-15T14:40:01.763Z,23.96
2018-09-15T14:42:29.644Z,24.00
2018-09-15T14:44:57.514Z,24.02
2018-09-15T14:47:25.382Z,24.07
2018-09-15T14:49:53.203Z,24.11
2018-09-15T14:52:21.065Z,24.13
2018-09-15T14:54:48.844Z,24.14
2018-09-15T14:57:16.698Z,24.21
2018-09-15T14:59:44.508Z,24.21
2018-09-15T15:02:12.287Z,24.19
2018-09-15T15:04:40.157Z,24.19
2018-09-15T15:07:08.210Z,24.31
2018-09-15T15:09:36.123Z,24.32
2018-09-15T15:12:04.028Z,24.29
2018-09-15T15:14:31.827Z,24.27
2018-09-15T15:16:59.868Z,24.24
2018-09-15T15:19:27.717Z,24.23
2018-09-15T15:21:55.479Z,24.19
2018-09-15T15:24:23.247Z,24.16
2018-09-15T15:26:51.273Z,24.15
2018-09-15T15:29:19.092Z,24.08
2018-09-15T15:31:46.999Z,23.98
2018-09-15T15:34:15.887Z,24.01
2018-09-15T15:36:43.727Z,23.97
2018-09-15T15:39:11.812Z,23.91
2018-09-15T15:41:39.576Z,23.78
2018-09-15T15:44:07.526Z,23.69
2018-09-15T15:46:35.495Z,23.63
2018-09-15T15:49:03.736Z,23.59
2018-09-15T15:51:31.953Z,23.42
2018-09-15T15:53:59.847Z,23.38
2018-09-15T15:56:27.897Z,23.32
2018-09-15T15:58:56.257Z,23.27
2018-09-15T16:01:23.984Z,23.11
2018-09-15T16:03:52.235Z,23.01
2018-09-15T16:06:20.515Z,23.00
2018-09-15T16:08:50.539Z,22.85
2018-09-15T16:11:18.999Z,22.91
2018-09-15T16:13:47.134Z,22.93
2018-09-15T16:16:15.038Z,22.88
2018-09-15T16:18:43.114Z,22.79
2018-09-15T16:21:11.093Z,22.74
2018-09-15T16:23:39.208Z,22.68
2018-09-15T16:26:07.783Z,22.57
2018-09-15T16:28:35.934Z,22.40
2018-09-15T16:31:03.991Z,22.42
2018-09-15T16:33:32.226Z,22.38
2018-09-15T16:36:03.161Z,22.35
2018-09-15T16:38:31.140Z,22.36
2018-09-15T16:40:59.216Z,22.37
2018-09-15T16:43:27.136Z,22.34
2018-09-15T16:45:55.477Z,22.27
2018-09-15T16:48:23.926Z,22.18
2018-09-15T16:50:51.760Z,22.02
2018-09-15T16:53:19.743Z,21.97
2018-09-15T16:55:47.773Z,21.85
2018-09-15T16:58:15.614Z,21.76
2018-09-15T17:00:43.415Z,21.67
2018-09-15T17:03:11.498Z,21.67
2018-09-15T17:05:39.821Z,21.47
2018-09-15T17:08:08.172Z,21.43
2018-09-15T17:10:37.027Z,21.26
2018-09-15T17:13:05.120Z,21.32
2018-09-15T17:15:33.299Z,21.26
2018-09-15T17:18:01.126Z,21.13
2018-09-15T17:20:29.624Z,21.17
2018-09-15T17:22:57.680Z,21.04
2018-09-15T17:25:25.645Z,20.96
2018-09-15T17:27:53.955Z,20.97
2018-09-15T17:30:22.055Z,20.84
2018-09-15T17:32:49.955Z,20.70
2018-09-15T17:35:17.964Z,20.59
2018-09-15T17:37:45.888Z,20.52
2018-09-15T17:40:13.740Z,20.43
2018-09-15T17:42:41.609Z,20.31
2018-09-15T17:45:09.478Z,20.26
2018-09-15T17:47:37.259Z,20.14
2018-09-15T17:50:05.055Z,20.03
2018-09-15T17:52:32.931Z,19.96
2018-09-15T17:55:01.440Z,19.76
2018-09-15T17:57:31.689Z,19.69
2018-09-15T17:59:59.614Z,19.57
2018-09-15T18:02:28.521Z,19.44
2018-09-15T18:04:57.238Z,19.31
2018-09-15T18:07:24.971Z,19.19
2018-09-15T18:09:52.909Z,19.03
2018-09-15T18:12:20.765Z,18.97
2018-09-15T18:14:48.591Z,18.76
2018-09-15T18:17:16.480Z,18.68
2018-09-15T18:19:44.424Z,18.53
2018-09-15T18:22:12.245Z,18.52
2018-09-15T18:24:40.032Z,18.39
2018-09-15T18:27:07.875Z,18.34
2018-09-15T18:29:36.278Z,18.17
2018-09-15T18:32:04.225Z,18.11
2018-09-15T18:34:32.074Z,18.04
2018-09-15T18:37:00.183Z,17.92
2018-09-15T18:39:28.150Z,17.74
2018-09-15T18:41:56.944Z,17.64
2018-09-15T18:44:24.903Z,17.56
2018-09-15T18:46:53.059Z,17.40
2018-09-15T18:49:20.946Z,17.28
2018-09-15T18:51:48.764Z,17.12
2018-09-15T18:54:16.592Z,17.12
2018-09-15T18:56:44.472Z,16.98
2018-09-15T18:59:12.260Z,16.84
2018-09-15T19:01:40.007Z,16.86
2018-09-15T19:04:07.804Z,16.78
2018-09-15T19:06:35.649Z,16.57
2018-09-15T19:09:06.293Z,16.49
2018-09-15T19:11:34.218Z,16.42
2018-09-15T19:14:02.123Z,16.25
2018-09-15T19:16:30.060Z,16.24
2018-09-15T19:18:57.963Z,16.24
2018-09-15T19:21:25.872Z,16.18
2018-09-15T19:23:53.764Z,16.18
2018-09-15T19:26:21.508Z,16.08
2018-09-15T19:28:49.304Z,16.10
2018-09-15T19:31:17.116Z,15.99
2018-09-15T19:33:44.959Z,15.99
2018-09-15T19:36:12.871Z,15.71
2018-09-15T19:38:40.740Z,15.75
2018-09-15T19:41:08.723Z,15.79
2018-09-15T19:43:36.599Z,15.81
2018-09-15T19:46:09.210Z,15.81
2018-09-15T19:48:37.071Z,15.92
2018-09-15T19:51:05.123Z,15.86
2018-09-15T19:53:32.979Z,15.78
2018-09-15T19:56:00.820Z,15.63
2018-09-15T19:58:30.299Z,15.45
2018-09-15T20:00:58.752Z,15.18
2018-09-15T20:03:26.568Z,15.19
2018-09-15T20:05:54.596Z,14.98
2018-09-15T20:08:22.647Z,14.86
2018-09-15T20:10:50.797Z,15.08
2018-09-15T20:13:18.567Z,15.15
2018-09-15T20:15:44.977Z,14.90
2018-09-15T20:18:11.403Z,14.75
2018-09-15T20:20:37.849Z,14.88
2018-09-15T20:23:05.795Z,14.91
2018-09-15T20:25:33.700Z,14.76
2018-09-15T20:28:01.658Z,14.79
2018-09-15T20:30:29.916Z,14.67
2018-09-15T20:32:57.753Z,14.59
2018-09-15T20:35:25.496Z,14.56
2018-09-15T20:37:53.319Z,14.49
2018-09-15T20:40:21.238Z,14.37
2018-09-15T20:42:49.046Z,14.41
2018-09-15T20:45:16.775Z,14.28
2018-09-15T20:47:44.636Z,14.33
2018-09-15T20:50:12.418Z,14.18
2018-09-15T20:52:40.313Z,14.20
2018-09-15T20:55:10.582Z,14.23
2018-09-15T20:57:38.432Z,14.29
2018-09-15T21:00:07.953Z,14.18
2018-09-15T21:02:35.984Z,14.15
2018-09-15T21:05:07.314Z,13.94
2018-09-15T21:07:35.152Z,14.08
2018-09-15T21:10:03.194Z,14.03
2018-09-15T21:12:30.991Z,14.01
2018-09-15T21:14:58.780Z,14.00
2018-09-15T21:17:26.575Z,14.04
2018-09-15T21:19:54.380Z,13.94
2018-09-15T21:22:22.127Z,13.76
2018-09-15T21:24:49.945Z,13.61
2018-09-15T21:27:17.790Z,13.66
2018-09-15T21:29:46.358Z,13.59
2018-09-15T21:32:14.358Z,13.54
2018-09-15T21:34:42.167Z,13.51
2018-09-15T21:37:13.596Z,13.44
2018-09-15T21:39:41.482Z,13.36
2018-09-15T21:42:09.353Z,13.33
2018-09-15T21:44:37.220Z,13.45
2018-09-15T21:47:05.268Z,13.55
2018-09-15T21:49:33.120Z,13.39
2018-09-15T21:52:00.882Z,13.35
2018-09-15T21:54:28.690Z,13.37
2018-09-15T21:56:56.508Z,13.38
2018-09-15T21:59:24.360Z,13.27
2018-09-15T22:01:52.152Z,13.21
2018-09-15T22:04:21.064Z,13.18
2018-09-15T22:06:50.307Z,13.16
2018-09-15T22:09:18.221Z,13.16
2018-09-15T22:11:45.946Z,12.95
2018-09-15T22:14:13.703Z,12.88
2018-09-15T22:16:42.039Z,12.94
2018-09-15T22:19:09.864Z,12.94
2018-09-15T22:21:37.636Z,13.09
2018-09-15T22:24:06.109Z,12.99
2018-09-15T22:26:33.988Z,12.97
2018-09-15T22:29:02.055Z,12.82
2018-09-15T22:31:29.889Z,12.82
2018-09-15T22:33:58.431Z,12.77
2018-09-15T22:36:26.199Z,12.79
2018-09-15T22:38:54.048Z,12.62
2018-09-15T22:41:21.910Z,12.74
2018-09-15T22:43:49.964Z,12.74
2018-09-15T22:46:17.834Z,12.65
2018-09-15T22:48:45.660Z,12.68
2018-09-15T22:51:13.654Z,12.60
2018-09-15T22:53:41.663Z,12.55
2018-09-15T22:56:09.513Z,12.54
2018-09-15T22:58:37.428Z,12.46
2018-09-15T23:01:14.076Z,12.47
2018-09-15T23:03:43.867Z,12.43
2018-09-15T23:06:11.719Z,12.35
2018-09-15T23:08:40.315Z,12.35
2018-09-15T23:11:08.546Z,12.25
2018-09-15T23:13:36.646Z,12.22
2018-09-15T23:16:04.615Z,12.13
2018-09-15T23:18:32.445Z,12.16
2018-09-15T23:21:00.289Z,12.08
2018-09-15T23:23:28.128Z,12.12
2018-09-15T23:25:56.070Z,12.00
2018-09-15T23:28:23.849Z,11.98
2018-09-15T23:30:51.634Z,11.91
2018-09-15T23:33:19.517Z,11.74
2018-09-15T23:35:47.311Z,11.71
2018-09-15T23:38:15.141Z,11.80
2018-09-15T23:40:42.987Z,11.75
2018-09-15T23:43:10.748Z,11.61
2018-09-15T23:45:38.568Z,11.69
2018-09-15T23:48:06.387Z,11.75
2018-09-15T23:50:34.227Z,11.64
2018-09-15T23:53:02.090Z,11.48
2018-09-15T23:55:29.919Z,11.51
2018-09-15T23:58:04.547Z,11.45
